createdAt,value
2022-10-18T00:00:54.120Z,8.15
2022-10-18T00:03:56.994Z,6.97
2022-10-18T00:07:00.157Z,8.37
2022-10-18T00:10:04.583Z,7.57
2022-10-18T00:13:07.042Z,7.70
2022-10-18T00:16:15.445Z,7.70
2022-10-18T00:19:18.083Z,7.70
2022-10-18T00:22:23.655Z,7.50
2022-10-18T00:25:26.135Z,8.23
2022-10-18T00:28:29.040Z,8.00
2022-10-18T00:31:33.923Z,8.57
2022-10-18T00:34:38.399Z,8.15
2022-10-18T00:37:40.984Z,8.80
2022-10-18T00:40:43.994Z,8.52
2022-10-18T00:43:52.761Z,8.35
2022-10-18T00:47:03.375Z,7.93
2022-10-18T00:50:07.333Z,8.52
2022-10-18T00:53:14.704Z,8.07
2022-10-18T00:56:17.559Z,7.82
2022-10-18T00:59:20.916Z,8.63
2022-10-18T01:02:24.157Z,8.65
2022-10-18T01:05:27.184Z,8.55
2022-10-18T01:08:32.966Z,8.83
2022-10-18T01:11:54.049Z,8.77
2022-10-18T01:15:27.144Z,8.30
2022-10-18T01:18:43.728Z,7.60
2022-10-18T01:21:55.458Z,8.45
2022-10-18T01:25:08.221Z,8.37
2022-10-18T01:28:30.710Z,8.23
2022-10-18T01:31:38.598Z,8.32
2022-10-18T01:34:42.689Z,8.05
2022-10-18T01:37:47.671Z,8.73
2022-10-18T01:40:50.837Z,7.90
2022-10-18T01:43:57.537Z,8.00
2022-10-18T01:47:00.128Z,8.60
2022-10-18T01:50:05.851Z,7.82
2022-10-18T01:53:22.262Z,8.02
2022-10-18T01:56:35.802Z,8.30
2022-10-18T01:59:44.117Z,8.38
2022-10-18T02:03:15.180Z,8.13
2022-10-18T02:06:27.277Z,7.95
2022-10-18T02:09:38.576Z,8.90
2022-10-18T02:12:43.666Z,7.73
2022-10-18T02:15:52.056Z,8.82
2022-10-18T02:18:59.648Z,8.63
2022-10-18T02:22:02.290Z,7.93
2022-10-18T02:25:09.904Z,7.97
2022-10-18T02:28:12.708Z,8.80
2022-10-18T02:31:20.430Z,7.70
2022-10-18T02:34:24.913Z,7.47
2022-10-18T02:37:35.308Z,8.73
2022-10-18T02:40:37.825Z,8.60
2022-10-18T02:43:40.631Z,8.50
2022-10-18T02:46:43.165Z,8.00
2022-10-18T02:49:45.974Z,7.50
2022-10-18T02:52:48.455Z,7.87
2022-10-18T02:55:51.195Z,10.07
2022-10-18T02:58:53.690Z,8.37
2022-10-18T03:01:59.058Z,8.02
2022-10-18T03:05:01.583Z,8.38
2022-10-18T03:08:04.753Z,7.87
2022-10-18T03:11:07.330Z,8.27
2022-10-18T03:14:10.164Z,8.60
2022-10-18T03:17:12.875Z,8.15
2022-10-18T03:20:15.912Z,7.47
2022-10-18T03:23:18.392Z,7.70
2022-10-18T03:26:21.688Z,8.13
2022-10-18T03:29:24.153Z,7.40
2022-10-18T03:32:26.896Z,7.07
2022-10-18T03:35:29.440Z,8.13
2022-10-18T03:38:32.761Z,7.32
2022-10-18T03:41:35.321Z,7.80
2022-10-18T03:44:38.046Z,7.73
2022-10-18T03:47:40.520Z,7.32
2022-10-18T03:50:43.830Z,7.15
2022-10-18T03:53:46.544Z,7.35
2022-10-18T03:56:49.263Z,7.05
2022-10-18T03:59:51.760Z,7.93
2022-10-18T04:02:55.974Z,6.62
2022-10-18T04:06:00.759Z,6.97
2022-10-18T04:09:06.525Z,7.10
2022-10-18T04:12:12.254Z,6.32
2022-10-18T04:15:14.749Z,7.40
2022-10-18T04:18:17.624Z,7.05
2022-10-18T04:21:20.343Z,7.03
2022-10-18T04:24:23.123Z,6.80
2022-10-18T04:27:25.743Z,7.30
2022-10-18T04:30:28.852Z,6.90
2022-10-18T04:33:31.498Z,7.18
2022-10-18T04:36:34.321Z,6.72
2022-10-18T04:39:36.763Z,8.15
2022-10-18T04:42:39.853Z,7.60
2022-10-18T04:45:45.545Z,7.03
2022-10-18T04:48:48.458Z,7.22
2022-10-18T04:51:51.071Z,8.32
2022-10-18T04:54:53.822Z,7.75
2022-10-18T04:57:56.240Z,7.70
2022-10-18T05:00:59.775Z,7.97
2022-10-18T05:04:02.479Z,7.32
2022-10-18T05:07:06.648Z,7.55
2022-10-18T05:10:09.750Z,8.13
2022-10-18T05:13:12.663Z,8.38
2022-10-18T05:16:16.081Z,7.77
2022-10-18T05:19:18.910Z,7.72
2022-10-18T05:22:21.421Z,7.40
2022-10-18T05:25:24.722Z,7.28
2022-10-18T05:28:39.613Z,8.02
2022-10-18T05:31:43.566Z,8.43
2022-10-18T05:34:46.142Z,8.07
2022-10-18T05:37:48.949Z,8.32
2022-10-18T05:40:53.149Z,7.80
2022-10-18T05:43:55.936Z,8.05
2022-10-18T05:46:58.373Z,7.87
2022-10-18T05:50:01.246Z,7.53
2022-10-18T05:53:12.581Z,7.82
2022-10-18T05:56:21.220Z,8.45
2022-10-18T05:59:23.882Z,9.27
2022-10-18T06:02:26.713Z,7.67
2022-10-18T06:05:29.528Z,7.22
2022-10-18T06:08:32.562Z,7.47
2022-10-18T06:11:36.463Z,8.00
2022-10-18T06:14:38.901Z,7.75
2022-10-18T06:17:41.646Z,8.10
2022-10-18T06:20:44.749Z,7.20
2022-10-18T06:23:56.594Z,7.90
2022-10-18T06:26:59.134Z,7.82
2022-10-18T06:30:02.215Z,7.45
2022-10-18T06:33:05.512Z,7.77
2022-10-18T06:36:11.806Z,7.55
2022-10-18T06:39:14.319Z,7.95
2022-10-18T06:42:19.136Z,7.53
2022-10-18T06:45:24.343Z,7.30
2022-10-18T06:48:27.074Z,7.83
2022-10-18T06:51:29.594Z,7.53
2022-10-18T06:54:32.323Z,7.20
2022-10-18T06:57:34.749Z,6.93
2022-10-18T07:00:37.591Z,7.18
2022-10-18T07:03:40.125Z,6.77
2022-10-18T07:06:42.896Z,6.80
2022-10-18T07:09:46.137Z,7.82
2022-10-18T07:12:48.961Z,7.10
2022-10-18T07:16:14.267Z,7.07
2022-10-18T07:19:20.339Z,7.27
2022-10-18T07:22:24.996Z,6.62
2022-10-18T07:25:31.436Z,7.18
2022-10-18T07:28:34.736Z,6.32
2022-10-18T07:31:41.048Z,7.47
2022-10-18T07:34:43.611Z,7.03
2022-10-18T07:37:46.376Z,7.12
2022-10-18T07:40:49.050Z,6.93
2022-10-18T07:43:52.982Z,6.97
2022-10-18T07:46:55.603Z,7.05
2022-10-18T07:50:02.419Z,6.87
2022-10-18T07:53:05.101Z,7.03
2022-10-18T07:56:16.720Z,6.30
2022-10-18T07:59:19.264Z,6.75
2022-10-18T08:02:23.474Z,6.80
2022-10-18T08:05:27.554Z,5.97
2022-10-18T08:08:30.485Z,6.32
2022-10-18T08:11:33.799Z,5.95
2022-10-18T08:14:36.284Z,6.72
2022-10-18T08:17:39.179Z,5.65
2022-10-18T08:20:45.738Z,5.63
2022-10-18T08:23:48.797Z,6.70
2022-10-18T08:26:51.250Z,6.32
2022-10-18T08:29:54.209Z,6.00
2022-10-18T08:32:56.667Z,5.78
2022-10-18T08:36:01.074Z,6.00
2022-10-18T08:39:03.518Z,5.93
2022-10-18T08:42:17.598Z,5.07
2022-10-18T08:45:37.338Z,4.82
2022-10-18T08:48:49.219Z,5.32
2022-10-18T08:51:52.311Z,4.63
2022-10-18T08:55:13.751Z,4.60
2022-10-18T08:58:20.961Z,4.40
2022-10-18T09:01:52.938Z,5.00
2022-10-18T09:05:46.611Z,4.43
2022-10-18T09:09:20.504Z,4.43
2022-10-18T09:12:40.178Z,4.32
2022-10-18T09:15:51.805Z,4.20
2022-10-18T09:19:03.251Z,4.35
2022-10-18T09:22:14.850Z,5.20
2022-10-18T09:25:19.017Z,4.30
2022-10-18T09:28:40.735Z,4.65
2022-10-18T09:31:56.861Z,4.50
2022-10-18T09:35:14.349Z,4.00
2022-10-18T09:38:20.723Z,4.32
2022-10-18T09:41:26.948Z,3.80
2022-10-18T09:44:36.237Z,4.00
2022-10-18T09:47:45.727Z,3.83
2022-10-18T09:50:55.278Z,3.37
2022-10-18T09:54:29.360Z,3.50
2022-10-18T09:57:41.547Z,3.37
2022-10-18T10:00:48.622Z,3.47
2022-10-18T10:03:51.841Z,3.72
2022-10-18T10:06:56.157Z,3.05
2022-10-18T10:10:25.489Z,2.78
2022-10-18T10:13:28.019Z,3.00
2022-10-18T10:16:30.702Z,2.70
2022-10-18T10:19:35.803Z,2.97
2022-10-18T10:22:40.234Z,2.92
2022-10-18T10:25:43.297Z,3.10
2022-10-18T10:28:49.971Z,2.90
2022-10-18T10:32:03.552Z,2.67
2022-10-18T10:35:52.676Z,3.20
2022-10-18T10:39:19.494Z,2.58
2022-10-18T10:42:22.357Z,2.65
2022-10-18T10:45:26.314Z,2.97
2022-10-18T10:48:33.569Z,3.17
2022-10-18T10:51:38.632Z,3.00
2022-10-18T10:54:46.486Z,3.10
2022-10-18T10:57:52.999Z,3.30
2022-10-18T11:00:57.528Z,3.40
2022-10-18T11:04:04.060Z,3.30
2022-10-18T11:07:30.325Z,3.20
2022-10-18T11:10:35.269Z,3.17
2022-10-18T11:14:01.588Z,3.10
2022-10-18T11:17:35.948Z,2.80
2022-10-18T11:20:48.126Z,3.65
2022-10-18T11:23:50.818Z,3.50
2022-10-18T11:27:08.778Z,3.30
2022-10-18T11:30:44.262Z,3.58
2022-10-18T11:34:10.289Z,3.40
2022-10-18T11:38:01.120Z,3.62
2022-10-18T11:41:22.522Z,3.12
2022-10-18T11:44:34.147Z,3.12
2022-10-18T11:47:45.025Z,3.47
2022-10-18T11:51:04.782Z,3.73
2022-10-18T11:54:20.281Z,3.15
2022-10-18T11:57:41.792Z,3.17
2022-10-18T12:00:57.357Z,3.60
2022-10-18T12:04:24.023Z,3.87
2022-10-18T12:07:35.057Z,3.53
2022-10-18T12:10:53.016Z,3.42
2022-10-18T12:14:10.831Z,3.33
2022-10-18T12:17:51.425Z,3.10
2022-10-18T12:20:56.659Z,2.90
2022-10-18T12:24:09.148Z,3.33
2022-10-18T12:27:13.922Z,3.70
2022-10-18T12:30:35.075Z,3.10
2022-10-18T12:33:45.245Z,3.58
2022-10-18T12:36:56.501Z,3.30
2022-10-18T12:40:11.402Z,3.10
2022-10-18T12:43:21.780Z,3.55
2022-10-18T12:46:24.378Z,3.20
2022-10-18T12:49:33.266Z,2.95
2022-10-18T12:52:37.153Z,3.00
2022-10-18T12:58:49.737Z,3.20
2022-10-18T13:01:55.418Z,3.10
2022-10-18T13:08:27.797Z,2.90
2022-10-18T13:11:33.359Z,2.73
2022-10-18T13:14:49.387Z,2.90
2022-10-18T13:18:16.219Z,2.87
2022-10-18T13:21:28.063Z,2.90
2022-10-18T13:25:13.963Z,2.80
2022-10-18T13:28:44.853Z,2.80
2022-10-18T13:31:55.261Z,2.70
2022-10-18T13:34:58.075Z,2.70
2022-10-18T13:38:00.578Z,2.40
2022-10-18T13:41:07.760Z,2.50
2022-10-18T13:44:22.524Z,2.47
2022-10-18T13:47:33.843Z,2.58
2022-10-18T13:50:38.281Z,2.42
2022-10-18T13:53:57.264Z,2.72
2022-10-18T13:57:15.495Z,2.67
2022-10-18T14:00:22.070Z,2.80
2022-10-18T14:07:02.381Z,2.80
2022-10-18T14:10:10.339Z,2.87
2022-10-18T14:13:21.859Z,2.67
2022-10-18T14:16:28.101Z,2.87
2022-10-18T14:19:41.150Z,3.28
2022-10-18T14:22:48.784Z,3.08
2022-10-18T14:25:51.356Z,2.83
2022-10-18T14:29:07.774Z,2.70
2022-10-18T14:32:18.640Z,2.97
2022-10-18T14:35:32.999Z,2.92
2022-10-18T14:38:37.935Z,2.58
2022-10-18T14:41:52.414Z,2.83
2022-10-18T14:44:56.439Z,2.62
2022-10-18T14:48:15.694Z,2.70
2022-10-18T14:51:18.997Z,3.40
2022-10-18T14:54:31.932Z,2.87
2022-10-18T14:57:36.631Z,3.47
2022-10-18T15:00:41.099Z,3.08
2022-10-18T15:03:45.584Z,2.93
2022-10-18T15:06:48.952Z,3.42
2022-10-18T15:09:51.606Z,3.37
2022-10-18T15:13:09.167Z,3.50
2022-10-18T15:16:17.583Z,4.07
2022-10-18T15:19:34.237Z,4.20
2022-10-18T15:22:36.997Z,3.45
2022-10-18T15:25:39.828Z,3.33
2022-10-18T15:28:52.832Z,3.08
2022-10-18T15:31:56.486Z,3.58
2022-10-18T15:35:13.550Z,2.77
2022-10-18T15:38:24.736Z,3.20
2022-10-18T15:41:38.487Z,2.78
2022-10-18T15:44:49.497Z,2.90
2022-10-18T15:48:02.879Z,2.80
2022-10-18T15:51:07.859Z,2.73
2022-10-18T15:54:17.926Z,3.22
2022-10-18T15:57:20.812Z,2.83
2022-10-18T16:00:25.316Z,2.72
2022-10-18T16:03:28.718Z,2.92
2022-10-18T16:06:32.368Z,2.77
2022-10-18T16:09:35.286Z,2.90
2022-10-18T16:12:37.810Z,3.00
2022-10-18T16:15:40.771Z,3.60
2022-10-18T16:18:43.279Z,4.15
2022-10-18T16:21:46.050Z,3.63
2022-10-18T16:24:48.458Z,4.68
2022-10-18T16:27:51.200Z,4.80
2022-10-18T16:30:59.521Z,6.43
2022-10-18T16:34:02.691Z,7.80
2022-10-18T16:37:05.138Z,8.33
2022-10-18T16:40:36.527Z,7.85
2022-10-18T16:43:45.508Z,7.50
2022-10-18T16:46:51.076Z,6.12
2022-10-18T16:49:56.431Z,5.10
2022-10-18T16:52:59.165Z,4.83
2022-10-18T16:56:02.815Z,5.68
2022-10-18T16:59:05.879Z,4.65
2022-10-18T17:02:09.296Z,5.00
2022-10-18T17:05:12.106Z,4.25
2022-10-18T17:08:21.918Z,5.43
2022-10-18T17:11:27.257Z,5.50
2022-10-18T17:14:29.812Z,5.82
2022-10-18T17:17:32.763Z,5.55
2022-10-18T17:20:36.556Z,5.60
2022-10-18T17:23:39.454Z,4.53
2022-10-18T17:26:41.937Z,4.05
2022-10-18T17:29:44.722Z,4.45
2022-10-18T17:32:47.215Z,3.95
2022-10-18T17:35:49.981Z,3.80
2022-10-18T17:38:55.752Z,4.37
2022-10-18T17:41:58.819Z,3.90
2022-10-18T17:45:01.314Z,4.05
2022-10-18T17:48:04.133Z,3.47
2022-10-18T17:51:12.550Z,4.10
2022-10-18T17:54:15.329Z,3.80
2022-10-18T17:57:18.180Z,3.67
2022-10-18T18:00:24.568Z,3.50
2022-10-18T18:03:27.482Z,3.80
2022-10-18T18:06:34.059Z,3.00
2022-10-18T18:09:36.865Z,3.07
2022-10-18T18:12:39.356Z,3.53
2022-10-18T18:15:42.114Z,3.20
2022-10-18T18:18:45.350Z,3.65
2022-10-18T18:21:48.539Z,4.32
2022-10-18T18:24:51.081Z,3.73
2022-10-18T18:27:54.419Z,3.58
2022-10-18T18:31:07.152Z,3.97
2022-10-18T18:34:10.513Z,3.70
2022-10-18T18:37:12.950Z,3.67
2022-10-18T18:40:16.950Z,3.70
2022-10-18T18:43:23.239Z,3.90
2022-10-18T18:46:28.083Z,2.90
2022-10-18T18:49:31.499Z,3.53
2022-10-18T18:52:34.696Z,3.80
2022-10-18T18:55:39.764Z,4.57
2022-10-18T18:58:44.178Z,3.78
2022-10-18T19:01:46.738Z,4.03
2022-10-18T19:04:50.756Z,4.20
2022-10-18T19:07:53.373Z,3.92
2022-10-18T19:10:57.678Z,4.23
2022-10-18T19:14:01.375Z,3.97
2022-10-18T19:17:07.141Z,4.37
2022-10-18T19:20:12.699Z,4.12
2022-10-18T19:23:15.794Z,4.93
2022-10-18T19:26:37.456Z,4.13
2022-10-18T19:29:43.878Z,4.60
2022-10-18T19:32:47.733Z,4.57
2022-10-18T19:35:50.901Z,4.53
2022-10-18T19:38:53.427Z,4.37
2022-10-18T19:41:58.554Z,3.80
2022-10-18T19:45:01.046Z,4.25
2022-10-18T19:48:04.118Z,4.60
2022-10-18T19:51:09.362Z,4.50
2022-10-18T19:54:13.446Z,4.15
2022-10-18T19:57:15.892Z,4.17
2022-10-18T20:00:19.681Z,4.25
2022-10-18T20:03:23.658Z,4.40
2022-10-18T20:06:26.524Z,4.40
2022-10-18T20:09:29.782Z,5.12
2022-10-18T20:12:32.652Z,4.30
2022-10-18T20:15:35.672Z,4.85
2022-10-18T20:18:38.713Z,4.25
2022-10-18T20:21:41.547Z,4.62
2022-10-18T20:24:44.193Z,4.68
2022-10-18T20:27:47.003Z,5.07
2022-10-18T20:31:03.461Z,5.12
2022-10-18T20:34:08.533Z,5.80
2022-10-18T20:37:11.035Z,5.50
2022-10-18T20:40:14.562Z,5.25
2022-10-18T20:43:17.086Z,5.57
2022-10-18T20:46:20.618Z,5.20
2022-10-18T20:49:23.266Z,4.95
2022-10-18T20:52:26.070Z,5.68
2022-10-18T20:55:29.099Z,5.20
2022-10-18T20:58:32.537Z,5.17
2022-10-18T21:01:36.070Z,5.55
2022-10-18T21:04:43.324Z,4.97
2022-10-18T21:07:45.906Z,5.95
2022-10-18T21:10:49.889Z,5.57
2022-10-18T21:13:53.941Z,5.87
2022-10-18T21:16:56.838Z,4.90
2022-10-18T21:20:01.001Z,4.93
2022-10-18T21:23:03.714Z,5.00
2022-10-18T21:26:06.807Z,4.70
2022-10-18T21:29:10.781Z,4.23
2022-10-18T21:32:13.406Z,4.70
2022-10-18T21:35:16.235Z,5.45
2022-10-18T21:38:18.837Z,5.00
2022-10-18T21:41:22.922Z,4.95
2022-10-18T21:44:25.546Z,5.30
2022-10-18T21:47:28.362Z,5.20
2022-10-18T21:50:31.225Z,5.40
2022-10-18T21:53:34.872Z,5.57
2022-10-18T21:56:37.383Z,6.18
2022-10-18T21:59:40.182Z,6.33
2022-10-18T22:02:42.777Z,6.97
2022-10-18T22:05:45.558Z,6.97
2022-10-18T22:08:51.030Z,5.95
2022-10-18T22:11:53.930Z,7.57
2022-10-18T22:14:56.531Z,7.20
2022-10-18T22:17:59.352Z,6.80
2022-10-18T22:21:05.918Z,6.90
2022-10-18T22:24:09.753Z,6.05
2022-10-18T22:27:12.227Z,5.93
2022-10-18T22:30:15.275Z,6.07
2022-10-18T22:33:18.133Z,5.62
2022-10-18T22:36:21.431Z,5.62
2022-10-18T22:39:24.674Z,5.25
2022-10-18T22:42:27.525Z,6.07
2022-10-18T22:45:30.061Z,5.23
2022-10-18T22:48:33.339Z,6.72
2022-10-18T22:51:39.581Z,6.05
2022-10-18T22:54:42.413Z,5.90
2022-10-18T22:57:44.901Z,5.75
2022-10-18T23:00:48.649Z,5.57
2022-10-18T23:03:55.743Z,5.20
2022-10-18T23:06:58.727Z,6.00
2022-10-18T23:10:01.283Z,4.70
2022-10-18T23:13:05.138Z,4.80
2022-10-18T23:16:08.165Z,5.43
2022-10-18T23:19:15.466Z,4.62
2022-10-18T23:22:21.223Z,5.28
2022-10-18T23:25:24.029Z,5.15
2022-10-18T23:28:26.661Z,5.00
2022-10-18T23:31:32.065Z,5.70
2022-10-18T23:34:34.617Z,4.85
2022-10-18T23:37:37.673Z,5.43
2022-10-18T23:40:42.054Z,5.25
2022-10-18T23:43:47.335Z,5.68
2022-10-18T23:46:49.837Z,5.10
2022-10-18T23:49:55.567Z,5.60
2022-10-18T23:52:57.959Z,5.03
2022-10-18T23:56:03.212Z,5.15
2022-10-18T23:59:05.709Z,4.90
